createdAt,value
2022-11-29T00:01:34.355Z,8.10
2022-11-29T00:04:01.895Z,8.10
2022-11-29T00:06:31.121Z,8.00
2022-11-29T00:09:00.078Z,8.00
2022-11-29T00:11:51.675Z,8.00
2022-11-29T00:14:19.894Z,8.00
2022-11-29T00:16:59.079Z,8.00
2022-11-29T00:19:25.784Z,8.00
2022-11-29T00:21:52.522Z,8.00
2022-11-29T00:24:19.468Z,8.00
2022-11-29T00:26:46.227Z,7.90
2022-11-29T00:29:13.120Z,7.90
2022-11-29T00:31:40.778Z,7.90
2022-11-29T00:34:07.743Z,7.90
2022-11-29T00:36:35.327Z,7.90
2022-11-29T00:39:03.399Z,7.90
2022-11-29T00:41:30.070Z,7.90
2022-11-29T00:43:56.715Z,7.90
2022-11-29T00:46:23.788Z,7.90
2022-11-29T00:48:50.522Z,7.90
2022-11-29T00:51:17.097Z,7.90
2022-11-29T00:53:43.669Z,7.90
2022-11-29T00:56:10.422Z,7.80
2022-11-29T00:58:37.335Z,7.80
2022-11-29T01:01:05.123Z,7.90
2022-11-29T01:03:31.917Z,7.80
2022-11-29T01:06:07.513Z,7.80
2022-11-29T01:08:34.413Z,7.80
2022-11-29T01:11:07.435Z,7.80
2022-11-29T01:13:35.097Z,7.80
2022-11-29T01:16:01.768Z,7.90
2022-11-29T01:18:30.380Z,7.80
2022-11-29T01:21:07.159Z,7.80
2022-11-29T01:23:34.804Z,7.80
2022-11-29T01:26:05.440Z,7.80
2022-11-29T01:28:32.858Z,7.70
2022-11-29T01:30:59.617Z,7.70
2022-11-29T01:33:26.291Z,7.80
2022-11-29T01:35:54.648Z,7.80
2022-11-29T01:38:22.157Z,7.90
2022-11-29T01:41:08.398Z,7.90
2022-11-29T01:43:54.361Z,8.00
2022-11-29T01:46:21.003Z,7.90
2022-11-29T01:48:49.092Z,8.00
2022-11-29T01:51:15.762Z,8.00
2022-11-29T01:53:42.532Z,8.00
2022-11-29T01:56:10.227Z,8.00
2022-11-29T01:58:36.845Z,8.00
2022-11-29T02:01:03.455Z,8.00
2022-11-29T02:03:30.053Z,7.90
2022-11-29T02:05:56.792Z,7.80
2022-11-29T02:08:39.294Z,7.80
2022-11-29T02:11:05.831Z,7.80
2022-11-29T02:13:51.216Z,7.80
2022-11-29T02:16:56.823Z,7.80
2022-11-29T02:19:35.554Z,7.70
2022-11-29T02:22:11.229Z,7.70
2022-11-29T02:25:21.055Z,7.70
2022-11-29T02:28:05.479Z,7.60
2022-11-29T02:30:55.665Z,7.60
2022-11-29T02:33:53.173Z,7.60
2022-11-29T02:36:31.646Z,7.50
2022-11-29T02:39:18.703Z,7.50
2022-11-29T02:42:11.555Z,7.50
2022-11-29T02:44:53.502Z,7.50
2022-11-29T02:47:50.648Z,7.50
2022-11-29T02:51:01.587Z,7.50
2022-11-29T02:53:38.006Z,7.50
2022-11-29T02:56:34.192Z,7.50
2022-11-29T02:59:12.722Z,7.50
2022-11-29T03:02:05.334Z,7.50
2022-11-29T03:04:45.419Z,7.60
2022-11-29T03:07:41.165Z,7.60
2022-11-29T03:10:50.068Z,7.60
2022-11-29T03:13:43.173Z,7.60
2022-11-29T03:16:21.597Z,7.60
2022-11-29T03:19:26.018Z,7.60
2022-11-29T03:22:15.359Z,7.60
2022-11-29T03:24:53.769Z,7.60
2022-11-29T03:28:00.518Z,7.60
2022-11-29T03:30:29.124Z,7.60
2022-11-29T03:33:06.944Z,7.60
2022-11-29T03:35:46.330Z,7.60
2022-11-29T03:38:39.695Z,7.60
2022-11-29T03:41:23.898Z,7.60
2022-11-29T03:44:00.424Z,7.60
2022-11-29T03:46:52.433Z,7.60
2022-11-29T03:49:40.895Z,7.60
2022-11-29T03:52:28.885Z,7.60
2022-11-29T03:55:33.361Z,7.60
2022-11-29T03:58:26.068Z,7.50
2022-11-29T04:01:10.672Z,7.50
2022-11-29T04:04:11.356Z,7.50
2022-11-29T04:07:17.171Z,7.50
2022-11-29T04:10:20.165Z,7.50
2022-11-29T04:13:01.400Z,7.50
2022-11-29T04:15:58.268Z,7.60
2022-11-29T04:18:43.477Z,7.60
2022-11-29T04:21:42.192Z,7.60
2022-11-29T04:24:48.297Z,7.60
2022-11-29T04:27:41.527Z,7.50
2022-11-29T04:30:20.441Z,7.50
2022-11-29T04:33:14.016Z,7.50
2022-11-29T04:35:52.574Z,7.50
2022-11-29T04:38:40.115Z,7.40
2022-11-29T04:41:25.210Z,7.40
2022-11-29T04:44:03.677Z,7.40
2022-11-29T04:46:59.445Z,7.40
2022-11-29T04:49:56.138Z,7.40
2022-11-29T04:52:28.801Z,7.40
2022-11-29T04:55:27.616Z,7.40
2022-11-29T04:58:45.264Z,7.40
2022-11-29T05:01:18.914Z,7.40
2022-11-29T05:04:06.811Z,7.40
2022-11-29T05:06:43.506Z,7.30
2022-11-29T05:09:27.471Z,7.40
2022-11-29T05:12:14.270Z,7.30
2022-11-29T05:15:10.476Z,7.30
2022-11-29T05:17:52.971Z,7.30
2022-11-29T05:20:43.132Z,7.40
2022-11-29T05:23:21.924Z,7.40
2022-11-29T05:25:57.952Z,7.40
2022-11-29T05:28:29.175Z,7.30
2022-11-29T05:31:24.217Z,7.30
2022-11-29T05:34:34.677Z,7.40
2022-11-29T05:37:53.113Z,7.30
2022-11-29T05:40:40.585Z,7.30
2022-11-29T05:43:27.612Z,7.20
2022-11-29T05:46:22.483Z,7.20
2022-11-29T05:49:20.355Z,7.20
2022-11-29T05:52:08.561Z,7.20
2022-11-29T05:54:52.314Z,7.20
2022-11-29T05:57:41.499Z,7.20
2022-11-29T06:00:12.354Z,7.20
2022-11-29T06:03:06.147Z,7.20
2022-11-29T06:05:41.591Z,7.20
2022-11-29T06:08:27.854Z,7.20
2022-11-29T06:11:05.854Z,7.20
2022-11-29T06:13:54.972Z,7.10
2022-11-29T06:17:00.046Z,7.10
2022-11-29T06:20:20.212Z,7.00
2022-11-29T06:22:59.853Z,7.10
2022-11-29T06:25:53.283Z,7.00
2022-11-29T06:29:02.143Z,7.00
2022-11-29T06:31:34.722Z,7.00
2022-11-29T06:34:10.405Z,7.10
2022-11-29T06:36:45.032Z,7.00
2022-11-29T06:39:11.868Z,7.00
2022-11-29T06:41:38.608Z,7.00
2022-11-29T06:44:05.952Z,7.00
2022-11-29T06:46:47.052Z,7.00
2022-11-29T06:49:26.795Z,6.90
2022-11-29T06:52:26.122Z,7.00
2022-11-29T06:55:22.041Z,6.90
2022-11-29T06:58:56.485Z,6.90
2022-11-29T07:01:41.995Z,6.90
2022-11-29T07:04:18.914Z,6.90
2022-11-29T07:06:46.747Z,6.90
2022-11-29T07:09:22.353Z,6.90
2022-11-29T07:11:49.600Z,6.90
2022-11-29T07:14:16.901Z,6.90
2022-11-29T07:17:04.663Z,6.90
2022-11-29T07:19:46.165Z,6.90
2022-11-29T07:22:32.100Z,6.80
2022-11-29T07:25:17.813Z,6.80
2022-11-29T07:28:05.088Z,6.80
2022-11-29T07:30:56.538Z,6.80
2022-11-29T07:33:59.142Z,6.80
2022-11-29T07:37:00.620Z,6.80
2022-11-29T07:39:54.860Z,6.70
2022-11-29T07:42:46.952Z,6.80
2022-11-29T07:45:41.523Z,6.80
2022-11-29T07:48:11.310Z,6.80
2022-11-29T07:50:38.375Z,6.90
2022-11-29T07:53:05.152Z,6.90
2022-11-29T07:55:34.620Z,6.90
2022-11-29T07:58:01.569Z,6.90
2022-11-29T08:00:28.225Z,6.90
2022-11-29T08:02:55.043Z,6.90
2022-11-29T08:05:22.414Z,6.90
2022-11-29T08:07:49.262Z,7.00
2022-11-29T08:10:17.054Z,7.00
2022-11-29T08:12:46.162Z,7.00
2022-11-29T08:15:16.726Z,7.00
2022-11-29T08:17:44.002Z,7.00
2022-11-29T08:20:12.664Z,7.10
2022-11-29T08:22:44.051Z,7.10
2022-11-29T08:25:11.578Z,7.10
2022-11-29T08:27:38.977Z,7.20
2022-11-29T08:30:06.751Z,7.20
2022-11-29T08:32:35.017Z,7.30
2022-11-29T08:35:01.960Z,7.30
2022-11-29T08:37:28.661Z,7.30
2022-11-29T08:39:56.174Z,7.30
2022-11-29T08:42:23.071Z,7.40
2022-11-29T08:44:49.953Z,7.40
2022-11-29T08:47:35.430Z,7.50
2022-11-29T08:50:07.429Z,7.50
2022-11-29T08:52:54.638Z,7.50
2022-11-29T08:55:23.958Z,7.60
2022-11-29T08:57:52.262Z,7.70
2022-11-29T09:00:21.161Z,7.70
2022-11-29T09:02:48.607Z,7.70
2022-11-29T09:05:15.802Z,7.70
2022-11-29T09:07:42.909Z,7.70
2022-11-29T09:10:10.370Z,7.70
2022-11-29T09:12:38.018Z,7.80
2022-11-29T09:15:07.031Z,7.80
2022-11-29T09:17:33.894Z,8.20
2022-11-29T09:20:00.650Z,8.10
2022-11-29T09:22:27.287Z,8.00
2022-11-29T09:24:54.170Z,7.90
2022-11-29T09:27:20.939Z,7.90
2022-11-29T09:29:48.191Z,7.90
2022-11-29T09:32:15.853Z,7.90
2022-11-29T09:34:42.666Z,7.80
2022-11-29T09:37:09.482Z,7.90
2022-11-29T09:39:36.108Z,7.90
2022-11-29T09:42:31.447Z,7.80
2022-11-29T09:45:09.349Z,7.90
2022-11-29T09:48:13.171Z,7.90
2022-11-29T09:51:18.772Z,7.90
2022-11-29T09:53:54.337Z,7.90
2022-11-29T09:56:31.223Z,7.90
2022-11-29T09:59:19.478Z,8.00
2022-11-29T10:02:21.147Z,8.00
2022-11-29T10:04:53.366Z,8.00
2022-11-29T10:07:27.197Z,8.00
2022-11-29T10:09:59.838Z,8.00
2022-11-29T10:12:34.904Z,8.00
2022-11-29T10:15:20.852Z,8.00
2022-11-29T10:18:11.217Z,8.20
2022-11-29T10:20:45.998Z,8.50
2022-11-29T10:23:28.373Z,8.40
2022-11-29T10:25:59.276Z,8.40
2022-11-29T10:28:32.245Z,8.40
2022-11-29T10:31:08.458Z,8.30
2022-11-29T10:33:39.396Z,8.40
2022-11-29T10:36:31.558Z,8.40
2022-11-29T10:39:02.691Z,8.40
2022-11-29T10:41:29.695Z,8.40
2022-11-29T10:43:59.830Z,8.30
2022-11-29T10:46:31.227Z,8.30
2022-11-29T10:49:01.226Z,8.30
2022-11-29T10:51:31.732Z,8.40
2022-11-29T10:54:20.772Z,8.40
2022-11-29T10:56:47.932Z,8.40
2022-11-29T10:59:23.937Z,8.40
2022-11-29T11:01:52.054Z,8.40
2022-11-29T11:04:30.657Z,8.50
2022-11-29T11:07:01.180Z,8.60
2022-11-29T11:09:27.804Z,8.60
2022-11-29T11:11:57.906Z,8.60
2022-11-29T11:14:37.502Z,8.60
2022-11-29T11:17:27.549Z,8.60
2022-11-29T11:20:00.826Z,8.60
2022-11-29T11:22:32.969Z,8.60
2022-11-29T11:25:24.407Z,8.60
2022-11-29T11:27:51.231Z,8.60
2022-11-29T11:30:24.072Z,8.70
2022-11-29T11:33:19.735Z,8.70
2022-11-29T11:36:06.723Z,8.70
2022-11-29T11:38:38.719Z,8.80
2022-11-29T11:41:56.276Z,8.80
2022-11-29T11:44:53.639Z,8.70
2022-11-29T11:47:27.310Z,8.80
2022-11-29T11:50:16.426Z,8.80
2022-11-29T11:52:54.596Z,8.90
2022-11-29T11:55:21.311Z,8.90
2022-11-29T11:58:12.668Z,8.90
2022-11-29T12:01:03.316Z,9.00
2022-11-29T12:04:01.799Z,8.90
2022-11-29T12:06:53.963Z,8.90
2022-11-29T12:09:32.311Z,9.00
2022-11-29T12:12:13.345Z,9.00
2022-11-29T12:15:21.677Z,9.00
2022-11-29T12:17:50.571Z,9.00
2022-11-29T12:20:42.314Z,9.10
2022-11-29T12:23:09.310Z,9.10
2022-11-29T12:26:02.725Z,9.10
2022-11-29T12:28:34.716Z,9.10
2022-11-29T12:31:06.481Z,9.20
2022-11-29T12:34:11.479Z,9.20
2022-11-29T12:37:19.003Z,9.20
2022-11-29T12:39:52.486Z,9.10
2022-11-29T12:43:00.305Z,9.10
2022-11-29T12:46:19.059Z,9.20
2022-11-29T12:49:21.161Z,9.20
2022-11-29T12:51:59.978Z,9.20
2022-11-29T12:54:32.773Z,9.10
2022-11-29T12:57:23.709Z,9.20
2022-11-29T13:00:00.540Z,9.20
2022-11-29T13:02:42.945Z,9.20
2022-11-29T13:05:09.639Z,9.30
2022-11-29T13:08:01.289Z,9.20
2022-11-29T13:10:57.201Z,9.30
2022-11-29T13:13:26.875Z,9.30
2022-11-29T13:16:20.225Z,9.30
2022-11-29T13:19:05.501Z,9.30
2022-11-29T13:21:42.636Z,9.30
2022-11-29T13:24:37.099Z,9.30
2022-11-29T13:27:07.737Z,9.30
2022-11-29T13:29:34.887Z,9.20
2022-11-29T13:32:06.189Z,9.20
2022-11-29T13:34:42.871Z,9.10
2022-11-29T13:37:30.678Z,9.10
2022-11-29T13:40:18.960Z,9.10
2022-11-29T13:43:10.329Z,9.10
2022-11-29T13:45:55.808Z,9.10
2022-11-29T13:48:28.413Z,9.00
2022-11-29T13:50:57.217Z,9.00
2022-11-29T13:53:30.715Z,9.10
2022-11-29T13:56:02.473Z,9.00
2022-11-29T13:58:29.117Z,9.10
2022-11-29T14:01:10.508Z,9.10
2022-11-29T14:03:59.507Z,9.00
2022-11-29T14:06:37.304Z,9.00
2022-11-29T14:09:31.464Z,9.10
2022-11-29T14:12:19.846Z,9.10
2022-11-29T14:14:54.506Z,9.20
2022-11-29T14:17:46.858Z,9.20
2022-11-29T14:20:22.731Z,9.20
2022-11-29T14:23:04.737Z,9.30
2022-11-29T14:28:23.053Z,9.30
2022-11-29T14:30:54.857Z,9.30
2022-11-29T14:33:49.189Z,9.20
2022-11-29T14:36:18.726Z,9.30
2022-11-29T14:38:48.849Z,9.30
2022-11-29T14:41:49.434Z,9.30
2022-11-29T14:44:18.043Z,9.30
2022-11-29T14:46:45.725Z,9.30
2022-11-29T14:49:23.577Z,9.30
2022-11-29T14:52:14.103Z,9.30
2022-11-29T14:55:15.908Z,9.30
2022-11-29T14:57:57.363Z,9.20
2022-11-29T15:00:29.162Z,9.20
2022-11-29T15:02:58.531Z,9.20
2022-11-29T15:05:32.304Z,9.20
2022-11-29T15:08:26.709Z,9.20
2022-11-29T15:11:01.834Z,9.20
2022-11-29T15:13:31.850Z,9.20
2022-11-29T15:16:19.793Z,9.20
2022-11-29T15:19:05.681Z,9.20
2022-11-29T15:22:03.693Z,9.30
2022-11-29T15:24:30.278Z,9.30
2022-11-29T15:27:02.326Z,9.30
2022-11-29T15:29:30.944Z,9.30
2022-11-29T15:31:59.887Z,9.30
2022-11-29T15:34:34.249Z,9.30
2022-11-29T15:37:01.573Z,9.30
2022-11-29T15:39:31.595Z,9.30
2022-11-29T15:42:12.608Z,9.30
2022-11-29T15:44:45.909Z,9.30
2022-11-29T15:47:26.527Z,9.30
2022-11-29T15:49:54.346Z,9.30
2022-11-29T15:52:26.531Z,9.20
2022-11-29T15:54:58.284Z,9.10
2022-11-29T15:57:47.156Z,9.10
2022-11-29T16:00:24.086Z,9.20
2022-11-29T16:02:59.420Z,9.20
2022-11-29T16:05:30.872Z,9.10
2022-11-29T16:08:06.973Z,9.10
2022-11-29T16:10:43.613Z,9.10
2022-11-29T16:13:31.514Z,9.10
2022-11-29T16:16:15.858Z,9.10
2022-11-29T16:18:45.156Z,9.00
2022-11-29T16:21:25.968Z,8.90
2022-11-29T16:23:53.328Z,8.90
2022-11-29T16:26:26.659Z,9.00
2022-11-29T16:28:57.685Z,9.00
2022-11-29T16:31:37.714Z,9.00
2022-11-29T16:34:30.489Z,9.00
2022-11-29T16:37:06.991Z,9.00
2022-11-29T16:39:38.324Z,8.90
2022-11-29T16:42:21.900Z,9.00
2022-11-29T16:45:03.347Z,9.00
2022-11-29T16:47:32.485Z,8.90
2022-11-29T16:50:02.122Z,9.00
2022-11-29T16:52:31.099Z,9.00
2022-11-29T16:54:58.184Z,9.00
2022-11-29T16:57:26.311Z,9.00
2022-11-29T16:59:53.077Z,9.00
2022-11-29T17:02:19.772Z,9.00
2022-11-29T17:04:46.965Z,8.90
2022-11-29T17:07:23.690Z,9.00
2022-11-29T17:09:50.433Z,8.90
2022-11-29T17:12:17.346Z,8.90
2022-11-29T17:14:44.326Z,8.80
2022-11-29T17:17:16.729Z,8.80
2022-11-29T17:19:43.503Z,8.80
2022-11-29T17:22:11.113Z,8.80
2022-11-29T17:24:42.128Z,8.70
2022-11-29T17:27:11.582Z,8.70
2022-11-29T17:29:38.132Z,8.70
2022-11-29T17:32:05.158Z,8.80
2022-11-29T17:34:32.354Z,8.80
2022-11-29T17:36:59.014Z,8.80
2022-11-29T17:39:25.838Z,8.90
2022-11-29T17:41:52.476Z,8.90
2022-11-29T17:44:19.109Z,8.90
2022-11-29T17:46:46.057Z,8.90
2022-11-29T17:49:12.828Z,8.90
2022-11-29T17:51:51.627Z,9.00
2022-11-29T17:54:21.455Z,9.00
2022-11-29T17:56:49.350Z,9.10
2022-11-29T17:59:16.923Z,9.20
2022-11-29T18:01:43.671Z,9.20
2022-11-29T18:04:10.413Z,9.10
2022-11-29T18:06:39.056Z,9.10
2022-11-29T18:09:07.856Z,9.00
2022-11-29T18:11:46.823Z,9.00
2022-11-29T18:14:17.105Z,8.90
2022-11-29T18:16:45.843Z,8.90
2022-11-29T18:19:16.291Z,9.00
2022-11-29T18:21:43.039Z,8.90
2022-11-29T18:24:10.444Z,8.90
2022-11-29T18:26:37.560Z,8.90
2022-11-29T18:29:05.619Z,8.90
2022-11-29T18:31:35.128Z,8.90
2022-11-29T18:34:06.922Z,8.90
2022-11-29T18:36:39.022Z,8.90
2022-11-29T18:39:11.564Z,8.90
2022-11-29T18:41:38.255Z,8.90
2022-11-29T18:44:07.670Z,8.90
2022-11-29T18:46:36.584Z,8.90
2022-11-29T18:49:05.333Z,8.90
2022-11-29T18:51:32.277Z,8.80
2022-11-29T18:53:59.146Z,8.70
2022-11-29T18:56:28.081Z,8.60
2022-11-29T18:59:06.255Z,8.70
2022-11-29T19:01:35.372Z,8.70
2022-11-29T19:04:02.275Z,8.70
2022-11-29T19:06:38.971Z,8.70
2022-11-29T19:09:09.666Z,8.70
2022-11-29T19:11:39.246Z,8.80
2022-11-29T19:14:11.294Z,8.80
2022-11-29T19:16:44.539Z,8.80
2022-11-29T19:19:11.748Z,8.90
2022-11-29T19:21:41.718Z,8.80
2022-11-29T19:24:14.221Z,8.80
2022-11-29T19:26:44.146Z,8.80
2022-11-29T19:29:10.922Z,8.80
2022-11-29T19:31:39.342Z,8.80
2022-11-29T19:34:06.380Z,8.80
2022-11-29T19:36:33.074Z,8.80
2022-11-29T19:39:01.527Z,8.80
2022-11-29T19:41:31.580Z,8.90
2022-11-29T19:44:00.650Z,8.80
2022-11-29T19:46:29.949Z,8.80
2022-11-29T19:48:58.298Z,8.80
2022-11-29T19:51:26.295Z,8.90
2022-11-29T19:53:54.955Z,8.90
2022-11-29T19:56:22.588Z,9.00
2022-11-29T19:58:51.013Z,8.90
2022-11-29T20:01:22.380Z,9.00
2022-11-29T20:03:50.174Z,8.90
2022-11-29T20:06:17.410Z,8.80
2022-11-29T20:08:44.971Z,8.80
2022-11-29T20:11:21.327Z,8.80
2022-11-29T20:13:55.365Z,8.80
2022-11-29T20:16:23.054Z,8.70
2022-11-29T20:18:51.132Z,8.70
2022-11-29T20:21:30.167Z,8.70
2022-11-29T20:24:05.591Z,8.70
2022-11-29T20:26:34.118Z,8.70
2022-11-29T20:29:02.041Z,8.70
2022-11-29T20:31:29.669Z,8.60
2022-11-29T20:33:57.360Z,8.60
2022-11-29T20:36:46.644Z,8.60
2022-11-29T20:39:35.287Z,8.70
2022-11-29T20:42:31.761Z,8.60
2022-11-29T20:45:01.298Z,8.60
2022-11-29T20:47:48.037Z,8.60
2022-11-29T20:50:23.522Z,8.60
2022-11-29T20:52:53.459Z,8.60
2022-11-29T20:55:20.658Z,8.60
2022-11-29T20:57:47.271Z,8.60
2022-11-29T21:00:15.549Z,8.60
2022-11-29T21:02:42.383Z,8.50
2022-11-29T21:05:09.179Z,8.50
2022-11-29T21:07:35.972Z,8.60
2022-11-29T21:10:03.240Z,8.60
2022-11-29T21:12:30.586Z,8.50
2022-11-29T21:14:58.000Z,8.50
2022-11-29T21:17:30.273Z,8.60
2022-11-29T21:20:00.322Z,8.50
2022-11-29T21:22:35.000Z,8.50
2022-11-29T21:25:26.574Z,8.40
2022-11-29T21:27:54.946Z,8.40
2022-11-29T21:30:23.742Z,8.40
2022-11-29T21:32:51.199Z,8.40
2022-11-29T21:35:18.151Z,8.30
2022-11-29T21:37:45.978Z,8.30
2022-11-29T21:40:14.074Z,8.30
2022-11-29T21:42:41.058Z,8.30
2022-11-29T21:45:13.408Z,8.30
2022-11-29T21:47:42.418Z,8.30
2022-11-29T21:50:09.416Z,8.30
2022-11-29T21:52:36.061Z,8.30
2022-11-29T21:55:03.015Z,8.30
2022-11-29T21:57:29.612Z,8.40
2022-11-29T21:59:56.189Z,8.40
2022-11-29T22:02:23.022Z,8.40
2022-11-29T22:04:49.770Z,8.40
2022-11-29T22:07:16.505Z,8.40
2022-11-29T22:09:43.167Z,8.30
2022-11-29T22:12:32.625Z,8.30
2022-11-29T22:14:56.268Z,8.30
2022-11-29T22:17:22.823Z,8.30
2022-11-29T22:19:49.363Z,8.30
2022-11-29T22:22:16.121Z,8.30
2022-11-29T22:24:42.905Z,8.30
2022-11-29T22:27:09.518Z,8.30
2022-11-29T22:29:36.214Z,8.30
2022-11-29T22:32:03.060Z,8.30
2022-11-29T22:34:29.710Z,8.40
2022-11-29T22:36:56.431Z,8.40
2022-11-29T22:39:23.852Z,8.40
2022-11-29T22:41:54.235Z,8.40
2022-11-29T22:44:21.678Z,8.40
2022-11-29T22:46:48.492Z,8.40
2022-11-29T22:49:15.422Z,8.40
2022-11-29T22:51:42.135Z,8.40
2022-11-29T22:54:11.427Z,8.40
2022-11-29T22:56:39.732Z,8.40
2022-11-29T22:59:06.889Z,8.40
2022-11-29T23:01:35.095Z,8.40
2022-11-29T23:04:04.065Z,8.40
2022-11-29T23:06:36.424Z,8.40
2022-11-29T23:09:11.998Z,8.40
2022-11-29T23:11:39.048Z,8.40
2022-11-29T23:14:05.628Z,8.40
2022-11-29T23:16:32.871Z,8.40
2022-11-29T23:19:00.230Z,8.30
2022-11-29T23:21:29.699Z,8.30
2022-11-29T23:23:57.054Z,8.20
2022-11-29T23:26:29.418Z,8.20
2022-11-29T23:28:56.566Z,8.20
2022-11-29T23:31:24.000Z,8.20
2022-11-29T23:33:50.886Z,8.20
2022-11-29T23:36:18.779Z,8.20
2022-11-29T23:38:45.395Z,8.20
2022-11-29T23:41:12.673Z,8.20
2022-11-29T23:43:40.539Z,8.20
2022-11-29T23:46:09.215Z,8.20
2022-11-29T23:48:36.047Z,8.20
2022-11-29T23:51:02.678Z,8.30
2022-11-29T23:53:29.626Z,8.30
2022-11-29T23:56:01.274Z,8.30
2022-11-29T23:58:29.654Z,8.30
